Time;durP1;ratioP1;P1;durP2;ratioP2;P2;SDS_P1;SDS_P2;PMS_P1;PMS_P2;Temp;Humidity;BMP_temperature;BMP_pressure;BME280_temperature;BME280_humidity;BME280_pressure;Samples;Min_cycle;Max_cycle;Signal;HPM_P1;HPM_P2
2023/09/15 00:01:34;;;;;;;9.15;5.32;;;;;;;-142.57;100.00;115900.28;5012059;28;20547;-77
2023/09/15 00:04:02;;;;;;;9.27;5.85;;;;;;;-142.57;100.00;115900.28;5009244;28;20030;-75
2023/09/15 00:06:28;;;;;;;8.57;6.22;;;;;;;-142.57;100.00;115900.28;5011823;28;20033;-74
2023/09/15 00:08:53;;;;;;;12.02;7.30;;;;;;;-142.57;100.00;115900.28;5012299;28;20037;-76
2023/09/15 00:11:19;;;;;;;11.18;8.30;;;;;;;-142.57;100.00;115900.28;4998658;28;20121;-76
2023/09/15 00:13:45;;;;;;;14.13;7.97;;;;;;;-142.57;100.00;115900.28;5011833;28;20037;-76
2023/09/15 00:16:11;;;;;;;11.45;7.80;;;;;;;-142.57;100.00;115900.28;5011972;28;20479;-77
2023/09/15 00:18:37;;;;;;;12.45;8.48;;;;;;;-142.57;100.00;115900.28;5011869;28;20042;-75
2023/09/15 00:21:05;;;;;;;13.27;8.32;;;;;;;-142.57;100.00;115900.28;5010518;28;20053;-77
2023/09/15 00:23:31;;;;;;;11.82;8.95;;;;;;;-142.57;100.00;115900.28;5003719;28;20039;-76
2023/09/15 00:25:59;;;;;;;12.60;8.85;;;;;;;-142.57;100.00;115900.28;5015748;28;20037;-76
2023/09/15 00:28:25;;;;;;;12.18;9.77;;;;;;;-142.57;100.00;115900.28;5014153;28;20018;-77
2023/09/15 00:30:50;;;;;;;14.35;8.90;;;;;;;-142.57;100.00;115900.28;5013951;28;20032;-76
2023/09/15 00:33:16;;;;;;;14.40;9.70;;;;;;;-142.57;100.00;115900.28;5008466;28;20477;-75
2023/09/15 00:35:42;;;;;;;17.75;10.38;;;;;;;-142.57;100.00;115900.28;5015496;28;20030;-76
2023/09/15 00:38:09;;;;;;;17.70;10.38;;;;;;;-142.57;100.00;115900.28;5015496;28;20042;-76
2023/09/15 00:40:36;;;;;;;12.57;9.50;;;;;;;-142.57;100.00;115900.28;5015368;28;20121;-76
2023/09/15 00:43:02;;;;;;;16.15;10.70;;;;;;;-142.57;100.00;115900.28;5006659;28;20109;-76
2023/09/15 00:45:28;;;;;;;15.38;9.95;;;;;;;-142.57;100.00;115900.28;4995868;28;20046;-76
2023/09/15 00:47:57;;;;;;;13.93;10.30;;;;;;;-142.57;100.00;115900.28;4994393;28;20046;-76
2023/09/15 00:50:29;;;;;;;12.25;9.57;;;;;;;-142.57;100.00;115900.28;4994168;28;20049;-77
2023/09/15 00:53:02;;;;;;;14.23;10.82;;;;;;;-142.57;100.00;115900.28;4995888;28;20089;-77
2023/09/15 00:55:29;;;;;;;14.60;11.43;;;;;;;-142.57;100.00;115900.28;5013108;28;20038;-77
2023/09/15 00:57:56;;;;;;;15.27;11.00;;;;;;;-142.57;100.00;115900.28;5015334;28;20048;-78
2023/09/15 01:00:22;;;;;;;16.80;11.55;;;;;;;-142.57;100.00;115900.28;5014730;28;20022;-76
2023/09/15 01:02:49;;;;;;;17.42;12.13;;;;;;;-142.57;100.00;115900.28;5015182;28;20046;-79
2023/09/15 01:05:20;;;;;;;14.50;11.45;;;;;;;-142.57;100.00;115900.28;5013578;28;20073;-78
2023/09/15 01:07:47;;;;;;;13.05;11.05;;;;;;;-142.57;100.00;115900.28;5013478;28;20400;-77
2023/09/15 01:10:14;;;;;;;14.93;10.57;;;;;;;-142.57;100.00;115900.28;5013357;28;21096;-75
2023/09/15 01:12:43;;;;;;;15.85;11.75;;;;;;;-142.57;100.00;115900.28;5014283;28;20040;-78
2023/09/15 01:15:10;;;;;;;19.58;11.60;;;;;;;-142.57;100.00;115900.28;5014590;28;20065;-77
2023/09/15 01:17:50;;;;;;;16.80;10.82;;;;;;;-142.57;100.00;115900.28;5014697;28;20030;-77
2023/09/15 01:20:26;;;;;;;18.38;11.60;;;;;;;-142.57;100.00;115900.28;5014721;28;20488;-79
2023/09/15 01:23:05;;;;;;;18.85;11.82;;;;;;;-142.57;100.00;115900.28;5012829;28;20510;-78
2023/09/15 01:25:52;;;;;;;16.63;11.73;;;;;;;-142.57;100.00;115900.28;5014806;28;20029;-79
2023/09/15 01:28:22;;;;;;;16.80;10.40;;;;;;;-142.57;100.00;115900.28;5015127;28;20041;-78
2023/09/15 01:30:50;;;;;;;12.43;10.27;;;;;;;-142.57;100.00;115900.28;5015498;28;20045;-76
2023/09/15 01:33:19;;;;;;;13.38;10.60;;;;;;;-142.57;100.00;115900.28;5012784;28;20018;-78
2023/09/15 01:35:45;;;;;;;16.20;11.68;;;;;;;-142.57;100.00;115900.28;5013076;28;20029;-77
2023/09/15 01:38:10;;;;;;;15.63;10.82;;;;;;;-142.57;100.00;115900.28;5013040;28;20038;-77
2023/09/15 01:40:37;;;;;;;13.93;10.30;;;;;;;-142.57;100.00;115900.28;5014357;28;20485;-76
2023/09/15 01:43:03;;;;;;;20.85;11.73;;;;;;;-142.57;100.00;115900.28;5014276;28;20022;-75
2023/09/15 01:45:30;;;;;;;15.00;10.73;;;;;;;-142.57;100.00;115900.28;5011151;28;20041;-76
2023/09/15 01:47:57;;;;;;;18.23;11.32;;;;;;;-142.57;100.00;115900.28;4999087;28;20361;-75
2023/09/15 01:50:23;;;;;;;16.98;12.32;;;;;;;-142.57;100.00;115900.28;5010958;28;20041;-78
2023/09/15 01:52:50;;;;;;;16.70;11.80;;;;;;;-142.57;100.00;115900.28;5012806;28;20045;-79
2023/09/15 01:55:16;;;;;;;15.25;12.00;;;;;;;-142.57;100.00;115900.28;5011194;28;20369;-78
2023/09/15 01:57:42;;;;;;;17.70;11.77;;;;;;;-142.57;100.00;115900.28;4999133;28;20493;-77
2023/09/15 02:00:08;;;;;;;19.17;11.75;;;;;;;-142.57;100.00;115900.28;4992945;28;20112;-77
2023/09/15 02:02:37;;;;;;;16.40;12.18;;;;;;;-142.57;100.00;115900.28;4994234;28;20035;-77
2023/09/15 02:05:03;;;;;;;16.60;12.20;;;;;;;-142.57;100.00;115900.28;4992823;28;20098;-77
2023/09/15 02:07:29;;;;;;;14.40;12.02;;;;;;;-142.57;100.00;115900.28;4998355;28;20034;-76
2023/09/15 02:09:54;;;;;;;18.20;12.35;;;;;;;-142.57;100.00;115900.28;4994034;28;20031;-77
2023/09/15 02:12:20;;;;;;;18.65;12.43;;;;;;;-142.57;100.00;115900.28;4992681;28;20551;-76
2023/09/15 02:14:45;;;;;;;19.98;12.23;;;;;;;-142.57;100.00;115900.28;5000654;28;20025;-77
2023/09/15 02:17:15;;;;;;;20.02;11.60;;;;;;;-142.57;100.00;115900.28;5013112;28;20029;-77
2023/09/15 02:19:42;;;;;;;15.48;11.43;;;;;;;-142.57;100.00;115900.28;5013547;28;21019;-77
2023/09/15 02:22:08;;;;;;;17.00;11.82;;;;;;;-142.57;100.00;115900.28;5013261;28;20125;-78
2023/09/15 02:24:33;;;;;;;23.30;12.38;;;;;;;-142.57;100.00;115900.28;5013192;28;20042;-79
2023/09/15 02:27:00;;;;;;;17.35;11.88;;;;;;;-142.57;100.00;115900.28;5011926;28;20030;-77
2023/09/15 02:29:25;;;;;;;17.63;12.15;;;;;;;-142.57;100.00;115900.28;5013371;28;20037;-77
2023/09/15 02:31:51;;;;;;;16.77;11.13;;;;;;;-142.57;100.00;115900.28;5013380;28;20052;-78
2023/09/15 02:34:17;;;;;;;17.42;12.00;;;;;;;-142.57;100.00;115900.28;5013202;28;20034;-79
2023/09/15 02:36:43;;;;;;;14.95;11.10;;;;;;;-142.57;100.00;115900.28;5012913;28;20048;-77
2023/09/15 02:39:10;;;;;;;16.63;11.82;;;;;;;-142.57;100.00;115900.28;5012580;28;20088;-79
2023/09/15 02:41:36;;;;;;;15.40;10.70;;;;;;;-142.57;100.00;115900.28;5011524;28;20053;-75
2023/09/15 02:44:02;;;;;;;18.77;11.27;;;;;;;-142.57;100.00;115900.28;5011473;28;20038;-77
2023/09/15 02:46:28;;;;;;;20.25;10.98;;;;;;;-142.57;100.00;115900.28;5012087;28;20053;-77
2023/09/15 02:48:54;;;;;;;14.38;10.75;;;;;;;-142.57;100.00;115900.28;5011734;28;20518;-76
2023/09/15 02:51:22;;;;;;;14.38;10.93;;;;;;;-142.57;100.00;115900.28;5013814;28;20382;-74
2023/09/15 02:53:48;;;;;;;14.38;11.48;;;;;;;-142.57;100.00;115900.28;5013254;28;20038;-77
2023/09/15 02:56:14;;;;;;;12.93;9.98;;;;;;;-142.57;100.00;115900.28;5011345;28;20068;-78
2023/09/15 02:58:40;;;;;;;18.38;10.75;;;;;;;-142.57;100.00;115900.28;5011357;28;20091;-81
2023/09/15 03:01:14;;;;;;;13.85;10.18;;;;;;;-142.57;100.00;115900.28;5004236;28;20145;-78
2023/09/15 03:03:42;;;;;;;11.25;8.95;;;;;;;-142.57;100.00;115900.28;4991646;28;20041;-78
2023/09/15 03:06:11;;;;;;;19.55;10.52;;;;;;;-142.57;100.00;115900.28;4991008;28;20093;-75
2023/09/15 03:08:37;;;;;;;13.00;9.40;;;;;;;-142.57;100.00;115900.28;5006190;28;20493;-77
2023/09/15 03:11:03;;;;;;;13.02;9.85;;;;;;;-142.57;100.00;115900.28;5011012;28;20087;-78
2023/09/15 03:13:28;;;;;;;16.05;10.63;;;;;;;-142.57;100.00;115900.28;5011298;28;20026;-76
2023/09/15 03:15:55;;;;;;;15.40;10.68;;;;;;;-142.57;100.00;115900.28;5011045;28;20117;-78
2023/09/15 03:18:21;;;;;;;13.93;9.90;;;;;;;-142.57;100.00;115900.28;5012474;28;20459;-77
2023/09/15 03:20:47;;;;;;;14.50;9.73;;;;;;;-142.57;100.00;115900.28;5010960;28;20489;-79
2023/09/15 03:23:12;;;;;;;12.77;9.80;;;;;;;-142.57;100.00;115900.28;5010912;28;20092;-78
2023/09/15 03:25:38;;;;;;;15.25;9.68;;;;;;;-142.57;100.00;115900.28;5011002;28;20060;-78
2023/09/15 03:28:04;;;;;;;17.15;11.05;;;;;;;-142.57;100.00;115900.28;5010661;28;20034;-77
2023/09/15 03:30:29;;;;;;;16.17;11.27;;;;;;;-142.57;100.00;115900.28;5010722;28;20030;-77
2023/09/15 03:32:56;;;;;;;16.60;10.93;;;;;;;-142.57;100.00;115900.28;5011067;28;20045;-76
2023/09/15 03:35:22;;;;;;;20.02;12.68;;;;;;;-142.57;100.00;115900.28;5011107;28;20088;-77
2023/09/15 03:37:47;;;;;;;17.35;12.45;;;;;;;-142.57;100.00;115900.28;5010569;28;20033;-78
2023/09/15 03:40:13;;;;;;;23.63;13.20;;;;;;;-142.57;100.00;115900.28;5011147;28;20447;-75
2023/09/15 03:42:39;;;;;;;24.85;14.85;;;;;;;-142.57;100.00;115900.28;5011403;28;20484;-77
2023/09/15 03:45:09;;;;;;;20.40;14.27;;;;;;;-142.57;100.00;115900.28;5011529;28;20112;-76
2023/09/15 03:47:35;;;;;;;22.98;15.68;;;;;;;-142.57;100.00;115900.28;5012597;28;20481;-77
2023/09/15 03:50:02;;;;;;;25.42;16.13;;;;;;;-142.57;100.00;115900.28;5012467;28;20037;-79
2023/09/15 03:52:31;;;;;;;20.08;16.17;;;;;;;-142.57;100.00;115900.28;5011181;28;20038;-75
2023/09/15 03:55:00;;;;;;;25.27;17.75;;;;;;;-142.57;100.00;115900.28;5011425;28;20022;-79
2023/09/15 03:57:28;;;;;;;25.50;18.02;;;;;;;-142.57;100.00;115900.28;5016136;28;20034;-77
2023/09/15 03:59:53;;;;;;;27.92;17.77;;;;;;;-142.57;100.00;115900.28;5015421;28;20041;-77
2023/09/15 04:02:19;;;;;;;22.83;16.85;;;;;;;-142.57;100.00;115900.28;5002346;28;20109;-77
2023/09/15 04:04:44;;;;;;;21.25;15.55;;;;;;;-142.57;100.00;115900.28;4994311;28;20034;-77
2023/09/15 04:07:10;;;;;;;23.45;16.35;;;;;;;-142.57;100.00;115900.28;4997046;28;20125;-77
2023/09/15 04:09:35;;;;;;;21.23;15.70;;;;;;;-142.57;100.00;115900.28;5002810;28;20125;-75
2023/09/15 04:12:03;;;;;;;28.17;17.40;;;;;;;-142.57;100.00;115900.28;4991636;28;20023;-76
2023/09/15 04:14:34;;;;;;;22.20;15.90;;;;;;;-142.57;100.00;115900.28;4991885;28;20088;-80
2023/09/15 04:17:01;;;;;;;24.75;16.92;;;;;;;-142.57;100.00;115900.28;4998097;28;20440;-79
2023/09/15 04:19:27;;;;;;;22.60;16.65;;;;;;;-142.57;100.00;115900.28;5000305;28;20378;-78
2023/09/15 04:21:53;;;;;;;41.80;17.50;;;;;;;-142.57;100.00;115900.28;4993964;28;20057;-79
2023/09/15 04:24:19;;;;;;;48.42;18.35;;;;;;;-142.57;100.00;115900.28;4989843;28;20042;-79
2023/09/15 04:26:45;;;;;;;26.58;18.40;;;;;;;-142.57;100.00;115900.28;5000129;28;20153;-79
2023/09/15 04:29:11;;;;;;;21.52;15.30;;;;;;;-142.57;100.00;115900.28;4998119;28;20046;-78
2023/09/15 04:31:38;;;;;;;22.67;14.57;;;;;;;-142.57;100.00;115900.28;4997357;28;20511;-80
2023/09/15 04:34:06;;;;;;;19.33;12.48;;;;;;;-142.57;100.00;115900.28;5008371;28;20960;-80
2023/09/15 04:36:32;;;;;;;24.58;11.93;;;;;;;-142.57;100.00;115900.28;5005394;28;20034;-79
2023/09/15 04:38:58;;;;;;;16.48;10.52;;;;;;;-142.57;100.00;115900.28;4999726;28;20476;-79
2023/09/15 04:41:24;;;;;;;16.17;10.77;;;;;;;-142.57;100.00;115900.28;5009382;28;20038;-79
2023/09/15 04:43:51;;;;;;;14.27;10.38;;;;;;;-142.57;100.00;115900.28;5006257;28;20580;-76
2023/09/15 04:46:18;;;;;;;15.68;10.70;;;;;;;-142.57;100.00;115900.28;5005481;28;20673;-77
2023/09/15 04:48:44;;;;;;;19.98;10.73;;;;;;;-142.57;100.00;115900.28;4994869;28;20030;-74
2023/09/15 04:51:11;;;;;;;16.33;12.38;;;;;;;-142.57;100.00;115900.28;4974904;28;20041;-77
2023/09/15 04:53:36;;;;;;;19.13;13.25;;;;;;;-142.57;100.00;115900.28;4999993;28;20034;-75
2023/09/15 04:56:03;;;;;;;17.30;12.80;;;;;;;-142.57;100.00;115900.28;4994088;28;20393;-79
2023/09/15 04:58:29;;;;;;;21.50;13.55;;;;;;;-142.57;100.00;115900.28;5000789;28;20408;-82
2023/09/15 05:01:03;;;;;;;18.00;12.88;;;;;;;-142.57;100.00;115900.28;5002610;28;20448;-83
2023/09/15 05:03:30;;;;;;;19.13;12.63;;;;;;;-142.57;100.00;115900.28;5010096;28;20038;-85
2023/09/15 05:05:56;;;;;;;17.80;12.15;;;;;;;-142.57;100.00;115900.28;4994142;28;20473;-84
2023/09/15 05:08:22;;;;;;;18.00;11.57;;;;;;;-142.57;100.00;115900.28;5002020;28;20041;-81
2023/09/15 05:10:48;;;;;;;21.17;11.65;;;;;;;-142.57;100.00;115900.28;4997574;28;20034;-83
2023/09/15 05:13:15;;;;;;;14.65;11.13;;;;;;;-142.57;100.00;115900.28;4994853;28;20103;-84
2023/09/15 05:15:40;;;;;;;17.35;11.75;;;;;;;-142.57;100.00;115900.28;4998135;28;20084;-84
2023/09/15 05:18:06;;;;;;;15.20;9.95;;;;;;;-142.57;100.00;115900.28;5006820;28;20029;-83
2023/09/15 05:20:32;;;;;;;16.75;9.77;;;;;;;-142.57;100.00;115900.28;5002598;28;20038;-84
2023/09/15 05:22:58;;;;;;;18.95;9.77;;;;;;;-142.57;100.00;115900.28;4984667;28;20039;-87
2023/09/15 05:25:25;;;;;;;20.50;9.20;;;;;;;-142.57;100.00;115900.28;5000759;28;20141;-86
2023/09/15 05:27:51;;;;;;;16.10;8.88;;;;;;;-142.57;100.00;115900.28;5001303;28;20481;-83
2023/09/15 05:30:17;;;;;;;17.38;8.65;;;;;;;-142.57;100.00;115900.28;5002471;28;20053;-85
2023/09/15 05:32:42;;;;;;;12.50;7.55;;;;;;;-142.57;100.00;115900.28;5004872;28;20546;-84
2023/09/15 05:35:10;;;;;;;11.32;7.47;;;;;;;-142.57;100.00;115900.28;5003049;28;20034;-85
2023/09/15 05:37:36;;;;;;;12.05;7.65;;;;;;;-142.57;100.00;115900.28;5005514;28;20047;-81
2023/09/15 05:40:03;;;;;;;19.25;8.05;;;;;;;-142.57;100.00;115900.28;5000001;28;20491;-82
2023/09/15 05:42:28;;;;;;;16.13;7.68;;;;;;;-142.57;100.00;115900.28;4998241;28;20113;-84
2023/09/15 05:44:54;;;;;;;13.48;7.68;;;;;;;-142.57;100.00;115900.28;4998661;28;20037;-83
2023/09/15 05:47:23;;;;;;;15.70;7.63;;;;;;;-142.57;100.00;115900.28;4992551;28;20058;-83
2023/09/15 05:49:48;;;;;;;13.63;7.43;;;;;;;-142.57;100.00;115900.28;5002479;28;20040;-82
2023/09/15 05:52:14;;;;;;;12.88;7.90;;;;;;;-142.57;100.00;115900.28;4999983;28;20030;-82
2023/09/15 05:54:39;;;;;;;11.98;7.45;;;;;;;-142.57;100.00;115900.28;5000778;28;20374;-81
2023/09/15 05:57:05;;;;;;;11.02;7.78;;;;;;;-142.57;100.00;115900.28;5008207;28;20421;-82
2023/09/15 05:59:31;;;;;;;14.38;8.13;;;;;;;-142.57;100.00;115900.28;5012328;28;20042;-85
2023/09/15 06:01:56;;;;;;;12.35;7.47;;;;;;;-142.57;100.00;115900.28;4997328;28;20370;-85
2023/09/15 06:04:23;;;;;;;11.95;8.02;;;;;;;-142.57;100.00;115900.28;5014247;28;20100;-83
2023/09/15 06:06:49;;;;;;;9.40;7.18;;;;;;;-142.57;100.00;115900.28;5013162;28;20489;-85
2023/09/15 06:09:15;;;;;;;13.52;7.97;;;;;;;-142.57;100.00;115900.28;5010836;28;20141;-83
2023/09/15 06:11:40;;;;;;;14.30;7.65;;;;;;;-142.57;100.00;115900.28;5013828;28;20385;-85
2023/09/15 06:14:06;;;;;;;12.95;8.13;;;;;;;-142.57;100.00;115900.28;5014127;28;20110;-81
2023/09/15 06:16:36;;;;;;;11.77;7.90;;;;;;;-142.57;100.00;115900.28;5021276;28;20040;-85
2023/09/15 06:19:02;;;;;;;11.80;8.93;;;;;;;-142.57;100.00;115900.28;5031293;28;20049;-80
2023/09/15 06:21:29;;;;;;;13.00;8.05;;;;;;;-142.57;100.00;115900.28;5007709;28;20170;-78
2023/09/15 06:23:55;;;;;;;16.63;9.10;;;;;;;-142.57;100.00;115900.28;5024651;28;20038;-79
2023/09/15 06:26:21;;;;;;;10.73;9.00;;;;;;;-142.57;100.00;115900.28;5018916;28;20029;-85
2023/09/15 06:28:46;;;;;;;13.35;8.50;;;;;;;-142.57;100.00;115900.28;5004237;28;20069;-81
2023/09/15 06:31:12;;;;;;;11.82;8.77;;;;;;;-142.57;100.00;115900.28;5004557;28;20095;-78
2023/09/15 06:33:37;;;;;;;10.90;8.20;;;;;;;-142.57;100.00;115900.28;5003176;28;20041;-79
2023/09/15 06:36:04;;;;;;;18.10;8.88;;;;;;;-142.57;100.00;115900.28;5005300;28;20053;-83
2023/09/15 06:38:31;;;;;;;14.68;10.02;;;;;;;-142.57;100.00;115900.28;5003828;28;20372;-80
2023/09/15 06:40:57;;;;;;;15.82;9.00;;;;;;;-142.57;100.00;115900.28;5003857;28;20034;-79
2023/09/15 06:43:22;;;;;;;12.80;9.73;;;;;;;-142.57;100.00;115900.28;5004020;28;20037;-82
2023/09/15 06:45:48;;;;;;;14.68;9.70;;;;;;;-142.57;100.00;115900.28;5002978;28;20038;-82
2023/09/15 06:48:14;;;;;;;17.45;9.25;;;;;;;-142.57;100.00;115900.28;5003050;28;20057;-82
2023/09/15 06:50:39;;;;;;;21.13;9.65;;;;;;;-142.57;100.00;115900.28;5000135;28;20030;-81
2023/09/15 06:53:04;;;;;;;14.50;9.75;;;;;;;-142.57;100.00;115900.28;4995307;28;20030;-81
2023/09/15 06:55:30;;;;;;;14.23;9.68;;;;;;;-142.57;100.00;115900.28;4995175;28;20375;-78
2023/09/15 06:57:56;;;;;;;12.13;9.32;;;;;;;-142.57;100.00;115900.28;4995134;28;20052;-81
2023/09/15 07:00:21;;;;;;;14.85;9.75;;;;;;;-142.57;100.00;115900.28;4994912;28;20416;-78
2023/09/15 07:02:47;;;;;;;15.55;10.68;;;;;;;-142.57;100.00;115900.28;5003720;28;20029;-80
2023/09/15 07:05:12;;;;;;;13.07;9.55;;;;;;;-142.57;100.00;115900.28;5011209;28;20100;-80
2023/09/15 07:07:38;;;;;;;18.58;9.70;;;;;;;-142.57;100.00;115900.28;5013278;28;20052;-80
2023/09/15 07:10:04;;;;;;;19.00;8.82;;;;;;;-142.57;100.00;115900.28;5013086;28;20060;-82
2023/09/15 07:12:30;;;;;;;15.23;8.23;;;;;;;-142.57;100.00;115900.28;5013176;28;20125;-80
2023/09/15 07:14:57;;;;;;;17.50;8.70;;;;;;;-142.57;100.00;115900.28;5011168;28;20540;-81
2023/09/15 07:17:23;;;;;;;11.32;7.13;;;;;;;-142.57;100.00;115900.28;5009516;28;20033;-79
2023/09/15 07:19:49;;;;;;;11.57;7.00;;;;;;;-142.57;100.00;115900.28;5013315;28;20030;-78
2023/09/15 07:22:15;;;;;;;13.02;7.32;;;;;;;-142.57;100.00;115900.28;5013194;28;20481;-81
2023/09/15 07:24:41;;;;;;;25.20;6.93;;;;;;;-142.57;100.00;115900.28;5013210;28;20045;-81
2023/09/15 07:27:08;;;;;;;13.68;6.72;;;;;;;-142.57;100.00;115900.28;5012817;28;20038;-83
2023/09/15 07:29:35;;;;;;;9.07;7.40;;;;;;;-142.57;100.00;115900.28;4994524;28;20042;-82
2023/09/15 07:32:00;;;;;;;13.40;7.72;;;;;;;-142.57;100.00;115900.28;4993552;28;20066;-80
2023/09/15 07:34:26;;;;;;;12.85;8.75;;;;;;;-142.57;100.00;115900.28;4993552;28;20120;-83
2023/09/15 07:36:51;;;;;;;12.73;8.75;;;;;;;-142.57;100.00;115900.28;4994412;28;20026;-81
2023/09/15 07:39:17;;;;;;;12.38;8.73;;;;;;;-142.57;100.00;115900.28;4993097;28;20046;-83
2023/09/15 07:41:43;;;;;;;19.88;9.23;;;;;;;-142.57;100.00;115900.28;4993484;28;20420;-84
2023/09/15 07:44:09;;;;;;;11.80;8.60;;;;;;;-142.57;100.00;115900.28;4994502;28;20038;-80
2023/09/15 07:46:36;;;;;;;11.93;8.93;;;;;;;-142.57;100.00;115900.28;4995156;28;20490;-83
2023/09/15 07:49:02;;;;;;;12.05;8.20;;;;;;;-142.57;100.00;115900.28;5012887;28;20362;-83
2023/09/15 07:51:28;;;;;;;16.52;8.50;;;;;;;-142.57;100.00;115900.28;5012537;28;20050;-77
2023/09/15 07:53:54;;;;;;;14.30;8.65;;;;;;;-142.57;100.00;115900.28;5012602;28;20041;-79
2023/09/15 07:56:21;;;;;;;12.60;8.60;;;;;;;-142.57;100.00;115900.28;5013076;28;20493;-82
2023/09/15 07:58:47;;;;;;;15.50;9.00;;;;;;;-142.57;100.00;115900.28;5004874;28;20493;-77
2023/09/15 08:01:12;;;;;;;13.70;8.45;;;;;;;-142.57;100.00;115900.28;5004643;28;20030;-82
2023/09/15 08:03:39;;;;;;;18.85;8.80;;;;;;;-142.57;100.00;115900.28;4995840;28;20083;-84
2023/09/15 08:06:09;;;;;;;13.55;8.90;;;;;;;-142.57;100.00;115900.28;4996204;28;20045;-80
2023/09/15 08:08:35;;;;;;;14.63;7.90;;;;;;;-142.57;100.00;115900.28;5006284;28;20382;-85
2023/09/15 08:11:00;;;;;;;13.95;7.72;;;;;;;-142.57;100.00;115900.28;4993658;28;20031;-82
2023/09/15 08:13:26;;;;;;;13.88;8.25;;;;;;;-142.57;100.00;115900.28;5012426;28;20045;-79
2023/09/15 08:15:52;;;;;;;15.10;8.00;;;;;;;-142.57;100.00;115900.28;5012207;28;20113;-78
2023/09/15 08:18:21;;;;;;;14.15;8.23;;;;;;;-142.57;100.00;115900.28;5012650;28;20121;-79
2023/09/15 08:20:47;;;;;;;17.42;7.88;;;;;;;-142.57;100.00;115900.28;5014194;28;20050;-79
2023/09/15 08:23:12;;;;;;;11.45;8.77;;;;;;;-142.57;100.00;115900.28;5013287;28;20118;-85
2023/09/15 08:25:39;;;;;;;20.20;9.77;;;;;;;-142.57;100.00;115900.28;5012199;28;20080;-83
2023/09/15 08:28:06;;;;;;;15.32;10.82;;;;;;;-142.57;100.00;115900.28;5012475;28;20048;-83
2023/09/15 08:30:33;;;;;;;17.80;9.70;;;;;;;-142.57;100.00;115900.28;5001014;28;20508;-81
2023/09/15 08:33:00;;;;;;;16.75;10.23;;;;;;;-142.57;100.00;115900.28;5002021;28;20034;-81
2023/09/15 08:35:26;;;;;;;21.88;9.75;;;;;;;-142.57;100.00;115900.28;5011129;28;20110;-81
2023/09/15 08:37:52;;;;;;;16.13;7.82;;;;;;;-142.57;100.00;115900.28;5011316;28;20112;-84
2023/09/15 08:40:19;;;;;;;12.65;8.35;;;;;;;-142.57;100.00;115900.28;5005989;28;20129;-85
2023/09/15 08:42:45;;;;;;;11.52;7.88;;;;;;;-142.57;100.00;115900.28;5014683;28;20037;-83
2023/09/15 08:45:14;;;;;;;11.05;8.68;;;;;;;-142.57;100.00;115900.28;5014980;28;20042;-82
2023/09/15 08:47:43;;;;;;;17.98;8.18;;;;;;;-142.57;100.00;115900.28;5009615;28;20030;-82
2023/09/15 08:50:09;;;;;;;14.05;8.73;;;;;;;-142.57;100.00;115900.28;5005339;28;20030;-83
2023/09/15 08:52:36;;;;;;;10.18;7.38;;;;;;;-142.57;100.00;115900.28;5008431;28;20153;-81
2023/09/15 08:55:03;;;;;;;8.73;7.15;;;;;;;-142.57;100.00;115900.28;5006282;28;20034;-85
2023/09/15 08:57:30;;;;;;;10.63;6.40;;;;;;;-142.57;100.00;115900.28;5005246;28;20482;-82
2023/09/15 08:59:57;;;;;;;13.80;7.68;;;;;;;-142.57;100.00;115900.28;5006076;28;20018;-82
2023/09/15 09:02:24;;;;;;;9.20;6.68;;;;;;;-142.57;100.00;115900.28;5005178;28;20030;-83
2023/09/15 09:04:50;;;;;;;12.75;7.43;;;;;;;-142.57;100.00;115900.28;5005256;28;20034;-84
2023/09/15 09:07:28;;;;;;;13.52;6.60;;;;;;;-142.57;100.00;115900.28;5004870;28;20401;-83
2023/09/15 09:09:55;;;;;;;8.95;6.85;;;;;;;-142.57;100.00;115900.28;5006203;28;20046;-84
2023/09/15 09:12:21;;;;;;;8.73;6.10;;;;;;;-142.57;100.00;115900.28;5003893;28;20023;-85
2023/09/15 09:14:49;;;;;;;9.20;6.63;;;;;;;-142.57;100.00;115900.28;5004767;28;20089;-81
2023/09/15 09:17:18;;;;;;;12.85;7.18;;;;;;;-142.57;100.00;115900.28;5009494;28;20038;-85
2023/09/15 09:19:46;;;;;;;10.27;6.85;;;;;;;-142.57;100.00;115900.28;5012765;28;20042;-80
2023/09/15 09:22:16;;;;;;;13.38;7.93;;;;;;;-142.57;100.00;115900.28;4978890;28;20045;-83
2023/09/15 09:24:42;;;;;;;12.32;7.38;;;;;;;-142.57;100.00;115900.28;5001090;28;20034;-85
2023/09/15 09:27:09;;;;;;;10.55;6.40;;;;;;;-142.57;100.00;115900.28;5015062;28;20052;-81
2023/09/15 09:29:36;;;;;;;10.55;7.43;;;;;;;-142.57;100.00;115900.28;4996530;28;20038;-81
2023/09/15 09:32:01;;;;;;;13.05;7.63;;;;;;;-142.57;100.00;115900.28;5013772;28;20596;-81
2023/09/15 09:34:27;;;;;;;13.52;7.22;;;;;;;-142.57;100.00;115900.28;5014257;28;20093;-80
2023/09/15 09:36:53;;;;;;;9.70;7.75;;;;;;;-142.57;100.00;115900.28;4995767;28;20092;-81
2023/09/15 09:39:18;;;;;;;9.90;7.88;;;;;;;-142.57;100.00;115900.28;4995831;28;20153;-85
2023/09/15 09:41:45;;;;;;;10.90;8.18;;;;;;;-142.57;97.61;115900.28;4996708;28;20444;-82
2023/09/15 09:44:12;;;;;;;12.05;7.72;;;;;;;-142.57;95.91;115900.28;4998039;28;20563;-81
2023/09/15 09:46:40;;;;;;;13.68;7.65;;;;;;;-142.57;94.04;115900.28;4995568;28;20057;-83
2023/09/15 09:49:06;;;;;;;9.55;6.70;;;;;;;-142.57;96.20;115900.28;4995185;28;20121;-80
2023/09/15 09:51:33;;;;;;;10.25;7.25;;;;;;;-142.57;100.00;115900.28;4993667;28;20042;-81
2023/09/15 09:54:00;;;;;;;14.02;7.35;;;;;;;-142.57;99.75;115900.28;4993694;28;20033;-81
2023/09/15 09:56:25;;;;;;;10.68;6.68;;;;;;;-142.57;94.51;115900.28;4995023;28;20383;-85
2023/09/15 09:58:51;;;;;;;13.65;7.10;;;;;;;-142.57;93.29;115900.28;4995011;28;20041;-82
2023/09/15 10:01:16;;;;;;;7.97;6.40;;;;;;;-142.57;92.07;115900.28;4995165;28;20050;-82
2023/09/15 10:03:42;;;;;;;9.10;6.68;;;;;;;-142.57;92.21;115900.28;4994972;28;20045;-84
2023/09/15 10:06:08;;;;;;;15.18;6.00;;;;;;;-142.57;88.61;115900.28;4994873;28;20035;-82
2023/09/15 10:08:39;;;;;;;13.27;7.45;;;;;;;-142.57;94.19;115900.28;4995263;28;20058;-83
2023/09/15 10:11:06;;;;;;;10.00;7.53;;;;;;;-142.57;94.15;115900.28;4995167;28;20508;-84
2023/09/15 10:13:32;;;;;;;11.25;7.32;;;;;;;-142.57;93.37;115900.28;4995268;28;20035;-80
2023/09/15 10:15:57;;;;;;;10.20;7.35;;;;;;;-142.57;91.86;115900.28;4995235;28;20030;-85
2023/09/15 10:18:23;;;;;;;6.75;5.65;;;;;;;-142.57;90.85;115900.28;4995108;28;20085;-83
2023/09/15 10:20:53;;;;;;;8.00;5.50;;;;;;;-142.57;92.04;115900.28;4995016;28;20035;-79
2023/09/15 10:23:19;;;;;;;7.78;6.10;;;;;;;-142.57;92.07;115900.28;4994701;28;20065;-80
2023/09/15 10:25:54;;;;;;;9.00;5.57;;;;;;;-142.57;86.39;115900.28;4994560;28;20029;-86
2023/09/15 10:28:23;;;;;;;8.82;5.78;;;;;;;-142.57;84.49;115900.28;4994621;28;20130;-86
2023/09/15 10:30:54;;;;;;;10.38;6.75;;;;;;;-142.57;85.32;115900.28;4995826;28;20515;-85
2023/09/15 10:33:25;;;;;;;11.43;6.05;;;;;;;-142.57;84.84;115900.28;4997437;28;20034;-85
2023/09/15 10:35:51;;;;;;;10.45;5.10;;;;;;;-142.57;85.56;115900.28;5008524;28;20061;-82
2023/09/15 10:38:30;;;;;;;6.55;4.63;;;;;;;-142.57;85.31;115900.28;4993999;28;20548;-86
2023/09/15 10:41:01;;;;;;;7.53;4.03;;;;;;;-142.57;86.02;115900.28;4994163;28;20057;-88
2023/09/15 10:43:26;;;;;;;7.07;4.80;;;;;;;-142.57;85.96;115900.28;4994288;28;20035;-83
2023/09/15 10:45:55;;;;;;;6.45;4.72;;;;;;;-142.57;87.93;115900.28;4994458;28;20046;-83
2023/09/15 10:48:22;;;;;;;7.47;4.03;;;;;;;-142.57;88.16;115900.28;4994691;28;20460;-85
2023/09/15 10:50:47;;;;;;;4.15;3.75;;;;;;;-142.57;87.12;115900.28;5009574;28;20027;-84